Kusadasi, Turkey
Current Conditions -  °F | °C
As of 7:20 PM on Sunday 25 Jan 2015 (Local Time) from LTBJ Reporting Station
Broken Clouds Broken Clouds  
Wind Chill: 55°   Ceiling: 10000
Heat Index: 55°   Visibility: 6mi
Dew Point: 45°   Wind: 6mph
Humidity: 67%   Direction: 170°S
Pressure: 29.88"   Gusts: NA
Location:  37.87°N, 27.26°E
Report Text: LTBJ 251620Z 17005KT 140V200 9999 SCT030 BKN100 13/07 Q1012 NOSIG
Loading
Personal Weather Stations






























Interactive Weather Map New forecast layout! Learn more

10-Day Weather Forecast

Advertisements
Track Severe Weather on mobile